CFB Trenton
CYTR : now visible

Airfield :











YOU CAN JOIN US ON...

 
LOGIN :

Register | Disclaimer

   EN    FR    IT 

 









Legend :    VFR   Marginal VFR   IFR   Intensive IFR   Very Intensive IFR
Visi :
Ceiling :
>= 8 km
>= 3000ft
5 to 8 km
1000 to 3000 ft
1500m to 5 km
500 to 1000 ft
800 to 1500m
200 to 500 ft
< 800m
< 200 ft
Symbols :   Thunderstorms  Fog  Heavy snow  Heavy precipitations  Wind > 20 kt






- Airport Elevation : 283 ft
- IATA code : YTR


CYTR - CFB Trenton

CURRENT METAR :
  • 262028Z 07011G17KT 5SM -SN BKN009 OVC056 M03/M05 A2978 RMK SF7SC1 CIG VRB 6-12 SLP091

EXPIRED METARs :
  • 262012Z 07010G18KT 7SM -SN OVC009 M02/M05 A2979 RMK SF8 CIG VRB 6-12 SLP095
  • 262000Z 08009G19KT 4SM -SN BKN008 OVC042 M02/M05 A2979 RMK SF6SC2 CIG VRB 6-10 /S03/ SLP095
  • 261941Z 07012KT 2 1/2SM -SN BKN008 OVC048 M02/M04 A2980 RMK SF6SC2 VIS VRB 1 3/4-4 CIG VRB 6-10 SLP098
  • 261922Z 07012G18KT 1 1/2SM -SN OVC010 M03/M04 A2981 RMK SF8 VIS VRB 1-2 SLP100
  • 261900Z 07013G18KT 1SM -SN OVC003 M03/M04 A2981 RMK SN7SF1 VIS VRB 3/4-1 1/4 CIG VRB 2-4 /S02/ SLP102
  • 261800Z 07010G15KT 1/2SM SN OVC005 M03/M04 A2986 RMK SN6SF2 VIS VRB 1/4-3/4 CIG VRB 3-7 /S01/ SLP116
  • 261747Z 07010G16KT 1/2SM SN OVC007 M03/M05 A2986 RMK SN6SF2 VIS VRB 1/4-3/4 CIG VRB 5-9 SLP117
  • 261738Z 07007KT 1 1/4SM -SN OVC009 M02/M05 A2987 RMK SN5SF3 VIS VRB 3/4-1 3/4 CIG VRB 6-12 SLP119

TAF AMD TAF CYTR
Valid from the 26 at 20:00 until the 27 at 18:00 UTC


262027Z 2620/2718 07010G20KT 2SM -SN OVC008
TEMPO 2620/2703 P6SM -SN OVC015
PROB30 2620/2701 1/2SM SHSN VV005
FM270300 03012KT P6SM OVC015
TEMPO 2703/2706 6SM -SN
BECMG 2708/2710 34008KT BKN020 OVC080
FM271300 34008KT P6SM FEW020 SCT080 RMK FCST BASED ON AUTO OBS 270300-271100Z. NXT FCST BY 270000Z
CZYZ FIR / North America



MET'MAP, your aeronautical weather chart ! - Copyright ORBIFLY December 2007 - Disclaimer

ORBIFLY MET'MAP TEAM :

Programming & Development : Alexandra Zaïnal
Concept & original design : Baudouin d'Aumeries
Assistance for programming : Marc-Olivier Méhu
Technical & hardware support : Manuel Goepfert

Contact : metmap@orbifly.com




SOURCES & CREDITS :

   NOAA       Earth
Advisory